Portada
METAR-TAF:

METAR-TAF

Aeroports :

Scampton, Anglaterra

latitud: 53-18-27N, longitud: 000-33-03W, altitud: 62 m

Observació

L'informe es va fer fa 1 hora i 11 minuts, a les 18:50 UTC
Vent 5 kt del Est
Temperatura 22°C
Humitat 60%
Pressió 1017 hPa
Visibilitat 10 km o més

METAR: EGXP 241850Z AUTO 10005KT 9999 // FEW220/// 22/14 Q1017

Hora: 21:01 (20:01 UTC)


TAF: manca

Observacions i pronòstics meteorològics de més de 4000 aeroports (METAR i TAF).

Les estacions disponibles són els punts grocs i vermells al mapa.

Posi el ratolí al punt desitjat per veure el nom de l'estació.

Feu clic per veure les observacions i els pronòstics meteorològics.

Per canviar el mapa: feu clic els botons verds amb una creu de color negre per apropar; al botó verd amb un guió per allunyar la imatge; o en les fletxes verdes per a mapes adjacents.


METAR-TAF: